Terminal Aerodrome Forecast
Issued by NWS

Home | Current Version | Previous Version | Text Only | Print | Product List | Glossary On
Versions: 1 2 3 4 5 6 7 8 9 10 11 12 13 14 15 16 17 18 19 20 21 22 23 24 25 26
000
FTUS45 KREV 252331
TAFTRK
TAF
KTRK 252331Z 2600/2624 VRB03KT P6SM SCT180
     FM261100 00000KT 6SM BCFG FEW002 SCT180
     FM261500 VRB04KT P6SM FEW100 SCT180
     FM261900 11009KT P6SM FEW100 SCT180=

USA.gov is the U.S. government's official web portal to all federal, state and local government web resources and services.